sensor_id;sensor_type;location;lat;lon;timestamp;temperature;humidity
55211;DHT22;41082;52.822;6.666;2023-04-30T00:01:54;8.20;99.90
55211;DHT22;41082;52.822;6.666;2023-04-30T00:04:19;8.10;99.90
55211;DHT22;41082;52.822;6.666;2023-04-30T00:06:45;8.10;99.90
55211;DHT22;41082;52.822;6.666;2023-04-30T00:09:11;8.10;99.90
55211;DHT22;41082;52.822;6.666;2023-04-30T00:11:36;8.10;99.90
55211;DHT22;41082;52.822;6.666;2023-04-30T00:14:02;8.10;99.90
55211;DHT22;41082;52.822;6.666;2023-04-30T00:16:27;8.10;99.90
55211;DHT22;41082;52.822;6.666;2023-04-30T00:18:53;8.10;99.90
55211;DHT22;41082;52.822;6.666;2023-04-30T00:21:19;8.10;99.90
55211;DHT22;41082;52.822;6.666;2023-04-30T00:23:44;8.00;99.90
55211;DHT22;41082;52.822;6.666;2023-04-30T00:26:10;8.00;99.90
55211;DHT22;41082;52.822;6.666;2023-04-30T00:28:35;8.00;99.90
55211;DHT22;41082;52.822;6.666;2023-04-30T00:31:01;8.00;99.90
55211;DHT22;41082;52.822;6.666;2023-04-30T00:33:27;7.90;99.90
55211;DHT22;41082;52.822;6.666;2023-04-30T00:35:52;7.90;99.90
55211;DHT22;41082;52.822;6.666;2023-04-30T00:38:18;7.90;99.90
55211;DHT22;41082;52.822;6.666;2023-04-30T00:40:43;7.90;99.90
55211;DHT22;41082;52.822;6.666;2023-04-30T00:43:10;7.90;99.90
55211;DHT22;41082;52.822;6.666;2023-04-30T00:45:36;7.80;99.90
55211;DHT22;41082;52.822;6.666;2023-04-30T00:48:02;7.80;99.90
55211;DHT22;41082;52.822;6.666;2023-04-30T00:50:28;7.80;99.90
55211;DHT22;41082;52.822;6.666;2023-04-30T00:52:54;7.80;99.90
55211;DHT22;41082;52.822;6.666;2023-04-30T00:55:19;7.70;99.90
55211;DHT22;41082;52.822;6.666;2023-04-30T00:57:45;7.70;99.90
55211;DHT22;41082;52.822;6.666;2023-04-30T01:00:11;7.70;99.90
55211;DHT22;41082;52.822;6.666;2023-04-30T01:02:38;7.70;99.90
55211;DHT22;41082;52.822;6.666;2023-04-30T01:05:04;7.70;99.90
55211;DHT22;41082;52.822;6.666;2023-04-30T01:07:31;7.60;99.90
55211;DHT22;41082;52.822;6.666;2023-04-30T01:09:57;7.60;99.90
55211;DHT22;41082;52.822;6.666;2023-04-30T01:12:32;7.60;99.90
55211;DHT22;41082;52.822;6.666;2023-04-30T01:20:20;7.50;99.90
55211;DHT22;41082;52.822;6.666;2023-04-30T01:23:10;7.50;99.90
55211;DHT22;41082;52.822;6.666;2023-04-30T01:28:08;7.40;99.90
55211;DHT22;41082;52.822;6.666;2023-04-30T01:30:34;7.40;99.90
55211;DHT22;41082;52.822;6.666;2023-04-30T01:33:01;7.30;99.90
55211;DHT22;41082;52.822;6.666;2023-04-30T01:41:08;7.30;99.90
55211;DHT22;41082;52.822;6.666;2023-04-30T01:43:56;7.20;99.90
55211;DHT22;41082;52.822;6.666;2023-04-30T01:46:25;7.20;99.90
55211;DHT22;41082;52.822;6.666;2023-04-30T01:51:43;7.10;99.90
55211;DHT22;41082;52.822;6.666;2023-04-30T01:54:16;7.00;99.90
55211;DHT22;41082;52.822;6.666;2023-04-30T01:56:54;7.00;99.90
55211;DHT22;41082;52.822;6.666;2023-04-30T01:59:27;7.00;99.90
55211;DHT22;41082;52.822;6.666;2023-04-30T02:01:55;7.00;99.90
55211;DHT22;41082;52.822;6.666;2023-04-30T02:04:20;6.90;99.90
55211;DHT22;41082;52.822;6.666;2023-04-30T02:06:46;6.90;99.90
55211;DHT22;41082;52.822;6.666;2023-04-30T02:09:11;6.90;99.90
55211;DHT22;41082;52.822;6.666;2023-04-30T02:11:37;6.80;99.90
55211;DHT22;41082;52.822;6.666;2023-04-30T02:14:03;6.80;99.90
55211;DHT22;41082;52.822;6.666;2023-04-30T02:16:28;6.80;99.90
55211;DHT22;41082;52.822;6.666;2023-04-30T02:18:54;6.80;99.90
55211;DHT22;41082;52.822;6.666;2023-04-30T02:21:19;6.80;99.90
55211;DHT22;41082;52.822;6.666;2023-04-30T02:23:45;6.70;99.90
55211;DHT22;41082;52.822;6.666;2023-04-30T02:26:11;6.70;99.90
55211;DHT22;41082;52.822;6.666;2023-04-30T02:28:36;6.70;99.90
55211;DHT22;41082;52.822;6.666;2023-04-30T02:31:02;6.70;99.90
55211;DHT22;41082;52.822;6.666;2023-04-30T02:33:27;6.70;99.90
55211;DHT22;41082;52.822;6.666;2023-04-30T02:35:53;6.70;99.90
55211;DHT22;41082;52.822;6.666;2023-04-30T02:38:19;6.60;99.90
55211;DHT22;41082;52.822;6.666;2023-04-30T02:40:45;6.60;99.90
55211;DHT22;41082;52.822;6.666;2023-04-30T02:43:11;6.60;99.90
55211;DHT22;41082;52.822;6.666;2023-04-30T02:45:36;6.60;99.90
55211;DHT22;41082;52.822;6.666;2023-04-30T02:48:02;6.50;99.90
55211;DHT22;41082;52.822;6.666;2023-04-30T02:50:27;6.40;99.90
55211;DHT22;41082;52.822;6.666;2023-04-30T02:52:53;6.40;99.90
55211;DHT22;41082;52.822;6.666;2023-04-30T02:55:20;6.40;99.90
55211;DHT22;41082;52.822;6.666;2023-04-30T02:57:46;6.40;99.90
55211;DHT22;41082;52.822;6.666;2023-04-30T03:00:12;6.30;99.90
55211;DHT22;41082;52.822;6.666;2023-04-30T03:02:37;6.30;99.90
55211;DHT22;41082;52.822;6.666;2023-04-30T03:05:03;6.20;99.90
55211;DHT22;41082;52.822;6.666;2023-04-30T03:07:29;6.10;99.90
55211;DHT22;41082;52.822;6.666;2023-04-30T03:09:54;6.10;99.90
55211;DHT22;41082;52.822;6.666;2023-04-30T03:12:20;6.10;99.90
55211;DHT22;41082;52.822;6.666;2023-04-30T03:14:45;6.10;99.90
55211;DHT22;41082;52.822;6.666;2023-04-30T03:17:11;6.00;99.90
55211;DHT22;41082;52.822;6.666;2023-04-30T03:19:36;6.00;99.90
55211;DHT22;41082;52.822;6.666;2023-04-30T03:22:02;5.90;99.90
55211;DHT22;41082;52.822;6.666;2023-04-30T03:24:28;5.90;99.90
55211;DHT22;41082;52.822;6.666;2023-04-30T03:26:53;5.90;99.90
55211;DHT22;41082;52.822;6.666;2023-04-30T03:29:19;5.80;99.90
55211;DHT22;41082;52.822;6.666;2023-04-30T03:31:44;5.80;99.90
55211;DHT22;41082;52.822;6.666;2023-04-30T03:34:10;5.70;99.90
55211;DHT22;41082;52.822;6.666;2023-04-30T03:36:36;5.70;99.90
55211;DHT22;41082;52.822;6.666;2023-04-30T03:39:01;5.60;99.90
55211;DHT22;41082;52.822;6.666;2023-04-30T03:41:28;5.60;99.90
55211;DHT22;41082;52.822;6.666;2023-04-30T03:43:53;5.60;99.90
55211;DHT22;41082;52.822;6.666;2023-04-30T03:46:19;5.60;99.90
55211;DHT22;41082;52.822;6.666;2023-04-30T03:48:45;5.60;99.90
55211;DHT22;41082;52.822;6.666;2023-04-30T03:51:10;5.60;99.90
55211;DHT22;41082;52.822;6.666;2023-04-30T03:53:36;5.60;99.90
55211;DHT22;41082;52.822;6.666;2023-04-30T03:56:02;5.60;99.90
55211;DHT22;41082;52.822;6.666;2023-04-30T03:58:28;5.60;99.90
55211;DHT22;41082;52.822;6.666;2023-04-30T04:00:54;5.50;99.90
55211;DHT22;41082;52.822;6.666;2023-04-30T04:03:20;5.50;99.90
55211;DHT22;41082;52.822;6.666;2023-04-30T04:05:46;5.50;99.90
55211;DHT22;41082;52.822;6.666;2023-04-30T04:08:12;5.50;99.90
55211;DHT22;41082;52.822;6.666;2023-04-30T04:10:38;5.50;99.90
55211;DHT22;41082;52.822;6.666;2023-04-30T04:13:05;5.50;99.90
55211;DHT22;41082;52.822;6.666;2023-04-30T04:15:31;5.50;99.90
55211;DHT22;41082;52.822;6.666;2023-04-30T04:17:57;5.50;99.90
55211;DHT22;41082;52.822;6.666;2023-04-30T04:20:23;5.50;99.90
55211;DHT22;41082;52.822;6.666;2023-04-30T04:22:49;5.50;99.90
55211;DHT22;41082;52.822;6.666;2023-04-30T04:25:14;5.50;99.90
55211;DHT22;41082;52.822;6.666;2023-04-30T04:27:42;5.50;99.90
55211;DHT22;41082;52.822;6.666;2023-04-30T04:30:08;5.50;99.90
55211;DHT22;41082;52.822;6.666;2023-04-30T04:32:34;5.60;99.90
55211;DHT22;41082;52.822;6.666;2023-04-30T04:35:12;5.60;99.90
55211;DHT22;41082;52.822;6.666;2023-04-30T04:37:37;5.60;99.90
55211;DHT22;41082;52.822;6.666;2023-04-30T04:40:03;5.70;99.90
55211;DHT22;41082;52.822;6.666;2023-04-30T04:42:29;5.70;99.90
55211;DHT22;41082;52.822;6.666;2023-04-30T04:44:55;5.70;99.90
55211;DHT22;41082;52.822;6.666;2023-04-30T04:47:20;5.80;99.90
55211;DHT22;41082;52.822;6.666;2023-04-30T04:49:47;5.80;99.90
55211;DHT22;41082;52.822;6.666;2023-04-30T04:52:12;5.90;99.90
55211;DHT22;41082;52.822;6.666;2023-04-30T04:54:38;5.90;99.90
55211;DHT22;41082;52.822;6.666;2023-04-30T04:57:03;6.00;99.90
55211;DHT22;41082;52.822;6.666;2023-04-30T04:59:29;6.00;99.90
55211;DHT22;41082;52.822;6.666;2023-04-30T05:01:54;6.10;99.90
55211;DHT22;41082;52.822;6.666;2023-04-30T05:04:20;6.20;99.90
55211;DHT22;41082;52.822;6.666;2023-04-30T05:06:46;6.20;99.90
55211;DHT22;41082;52.822;6.666;2023-04-30T05:09:12;6.30;99.90
55211;DHT22;41082;52.822;6.666;2023-04-30T05:11:37;6.30;99.90
55211;DHT22;41082;52.822;6.666;2023-04-30T05:14:03;6.30;99.90
55211;DHT22;41082;52.822;6.666;2023-04-30T05:16:28;6.40;99.90
55211;DHT22;41082;52.822;6.666;2023-04-30T05:18:54;6.50;99.90
55211;DHT22;41082;52.822;6.666;2023-04-30T05:21:20;6.60;99.90
55211;DHT22;41082;52.822;6.666;2023-04-30T05:23:46;6.70;99.90
55211;DHT22;41082;52.822;6.666;2023-04-30T05:26:11;6.80;99.90
55211;DHT22;41082;52.822;6.666;2023-04-30T05:28:37;6.80;99.90
55211;DHT22;41082;52.822;6.666;2023-04-30T05:31:03;6.80;99.90
55211;DHT22;41082;52.822;6.666;2023-04-30T05:33:28;6.90;99.90
55211;DHT22;41082;52.822;6.666;2023-04-30T05:35:54;7.00;99.90
55211;DHT22;41082;52.822;6.666;2023-04-30T05:38:19;7.00;99.90
55211;DHT22;41082;52.822;6.666;2023-04-30T05:40:45;7.10;99.90
55211;DHT22;41082;52.822;6.666;2023-04-30T05:43:11;7.20;99.90
55211;DHT22;41082;52.822;6.666;2023-04-30T05:45:36;7.30;99.90
55211;DHT22;41082;52.822;6.666;2023-04-30T05:48:02;7.50;99.90
55211;DHT22;41082;52.822;6.666;2023-04-30T05:50:28;7.60;99.90
55211;DHT22;41082;52.822;6.666;2023-04-30T05:52:54;7.70;99.90
55211;DHT22;41082;52.822;6.666;2023-04-30T05:55:19;7.80;99.90
55211;DHT22;41082;52.822;6.666;2023-04-30T05:57:45;7.90;99.90
55211;DHT22;41082;52.822;6.666;2023-04-30T06:00:11;8.10;99.90
55211;DHT22;41082;52.822;6.666;2023-04-30T06:02:37;8.30;99.90
55211;DHT22;41082;52.822;6.666;2023-04-30T06:05:02;8.40;99.90
55211;DHT22;41082;52.822;6.666;2023-04-30T06:07:28;8.60;99.90
55211;DHT22;41082;52.822;6.666;2023-04-30T06:09:54;8.70;99.90
55211;DHT22;41082;52.822;6.666;2023-04-30T06:12:20;8.80;99.90
55211;DHT22;41082;52.822;6.666;2023-04-30T06:14:46;9.00;99.90
55211;DHT22;41082;52.822;6.666;2023-04-30T06:17:12;9.10;99.90
55211;DHT22;41082;52.822;6.666;2023-04-30T06:19:38;9.30;99.90
55211;DHT22;41082;52.822;6.666;2023-04-30T06:22:04;9.40;99.90
55211;DHT22;41082;52.822;6.666;2023-04-30T06:24:29;9.60;99.90
55211;DHT22;41082;52.822;6.666;2023-04-30T06:26:55;9.70;99.90
55211;DHT22;41082;52.822;6.666;2023-04-30T06:29:21;9.90;99.90
55211;DHT22;41082;52.822;6.666;2023-04-30T06:31:49;10.00;99.90
55211;DHT22;41082;52.822;6.666;2023-04-30T06:34:15;10.00;99.90
55211;DHT22;41082;52.822;6.666;2023-04-30T06:36:40;10.10;99.90
55211;DHT22;41082;52.822;6.666;2023-04-30T06:39:06;10.20;99.90
55211;DHT22;41082;52.822;6.666;2023-04-30T06:41:32;10.40;99.90
55211;DHT22;41082;52.822;6.666;2023-04-30T06:43:57;10.40;99.90
55211;DHT22;41082;52.822;6.666;2023-04-30T06:46:23;10.50;99.90
55211;DHT22;41082;52.822;6.666;2023-04-30T06:48:48;10.60;99.90
55211;DHT22;41082;52.822;6.666;2023-04-30T06:51:14;10.70;99.90
55211;DHT22;41082;52.822;6.666;2023-04-30T06:53:40;10.80;99.90
55211;DHT22;41082;52.822;6.666;2023-04-30T06:56:06;10.90;99.90
55211;DHT22;41082;52.822;6.666;2023-04-30T06:58:31;11.00;99.90
55211;DHT22;41082;52.822;6.666;2023-04-30T07:00:57;11.00;99.90
55211;DHT22;41082;52.822;6.666;2023-04-30T07:03:22;11.10;99.90
55211;DHT22;41082;52.822;6.666;2023-04-30T07:05:48;11.20;99.90
55211;DHT22;41082;52.822;6.666;2023-04-30T07:08:16;11.30;99.90
55211;DHT22;41082;52.822;6.666;2023-04-30T07:10:42;11.30;99.90
55211;DHT22;41082;52.822;6.666;2023-04-30T07:13:07;11.40;99.90
55211;DHT22;41082;52.822;6.666;2023-04-30T07:15:33;11.40;99.90
55211;DHT22;41082;52.822;6.666;2023-04-30T07:17:59;11.50;99.90
55211;DHT22;41082;52.822;6.666;2023-04-30T07:20:24;11.60;99.90
55211;DHT22;41082;52.822;6.666;2023-04-30T07:22:50;11.60;99.90
55211;DHT22;41082;52.822;6.666;2023-04-30T07:25:16;11.70;99.90
55211;DHT22;41082;52.822;6.666;2023-04-30T07:27:41;11.80;99.90
55211;DHT22;41082;52.822;6.666;2023-04-30T07:30:08;11.90;99.90
55211;DHT22;41082;52.822;6.666;2023-04-30T07:32:36;12.10;99.90
55211;DHT22;41082;52.822;6.666;2023-04-30T07:35:02;12.10;99.90
55211;DHT22;41082;52.822;6.666;2023-04-30T07:37:28;12.20;99.90
55211;DHT22;41082;52.822;6.666;2023-04-30T07:39:53;12.30;99.90
55211;DHT22;41082;52.822;6.666;2023-04-30T07:42:19;12.30;99.90
55211;DHT22;41082;52.822;6.666;2023-04-30T07:44:45;12.40;99.90
55211;DHT22;41082;52.822;6.666;2023-04-30T07:47:10;12.40;99.90
55211;DHT22;41082;52.822;6.666;2023-04-30T07:49:36;12.40;99.90
55211;DHT22;41082;52.822;6.666;2023-04-30T07:52:02;12.50;99.90
55211;DHT22;41082;52.822;6.666;2023-04-30T07:54:28;12.50;99.90
55211;DHT22;41082;52.822;6.666;2023-04-30T07:56:53;12.40;99.90
55211;DHT22;41082;52.822;6.666;2023-04-30T07:59:19;12.50;99.90
55211;DHT22;41082;52.822;6.666;2023-04-30T08:01:46;12.60;99.90
55211;DHT22;41082;52.822;6.666;2023-04-30T08:04:11;12.60;99.90
55211;DHT22;41082;52.822;6.666;2023-04-30T08:06:37;12.70;99.90
55211;DHT22;41082;52.822;6.666;2023-04-30T08:09:03;12.60;99.90
55211;DHT22;41082;52.822;6.666;2023-04-30T08:11:29;12.60;99.90
55211;DHT22;41082;52.822;6.666;2023-04-30T08:13:54;12.60;99.90
55211;DHT22;41082;52.822;6.666;2023-04-30T08:16:20;12.70;99.90
55211;DHT22;41082;52.822;6.666;2023-04-30T08:18:45;12.80;99.90
55211;DHT22;41082;52.822;6.666;2023-04-30T08:21:12;13.00;99.90
55211;DHT22;41082;52.822;6.666;2023-04-30T08:23:37;13.10;99.90
55211;DHT22;41082;52.822;6.666;2023-04-30T08:26:03;13.10;99.90
55211;DHT22;41082;52.822;6.666;2023-04-30T08:28:29;13.20;99.90
55211;DHT22;41082;52.822;6.666;2023-04-30T08:30:55;13.30;99.90
55211;DHT22;41082;52.822;6.666;2023-04-30T08:33:20;13.40;99.90
55211;DHT22;41082;52.822;6.666;2023-04-30T08:35:46;13.60;99.90
55211;DHT22;41082;52.822;6.666;2023-04-30T08:38:12;13.60;99.90
55211;DHT22;41082;52.822;6.666;2023-04-30T08:40:39;13.80;99.90
55211;DHT22;41082;52.822;6.666;2023-04-30T08:43:06;13.90;99.90
55211;DHT22;41082;52.822;6.666;2023-04-30T08:45:33;14.00;99.90
55211;DHT22;41082;52.822;6.666;2023-04-30T08:48:00;14.20;99.90
55211;DHT22;41082;52.822;6.666;2023-04-30T08:50:27;14.30;99.90
55211;DHT22;41082;52.822;6.666;2023-04-30T08:52:53;14.40;99.90
55211;DHT22;41082;52.822;6.666;2023-04-30T08:55:18;14.30;99.90
55211;DHT22;41082;52.822;6.666;2023-04-30T08:57:44;14.40;99.90
55211;DHT22;41082;52.822;6.666;2023-04-30T09:00:10;14.50;99.90
55211;DHT22;41082;52.822;6.666;2023-04-30T09:02:40;14.70;99.90
55211;DHT22;41082;52.822;6.666;2023-04-30T09:05:10;14.70;99.90
55211;DHT22;41082;52.822;6.666;2023-04-30T09:07:42;14.80;99.40
55211;DHT22;41082;52.822;6.666;2023-04-30T09:10:19;15.00;99.30
55211;DHT22;41082;52.822;6.666;2023-04-30T09:15:27;15.20;99.20
55211;DHT22;41082;52.822;6.666;2023-04-30T09:18:15;15.30;99.30
55211;DHT22;41082;52.822;6.666;2023-04-30T09:20:58;15.30;99.10
55211;DHT22;41082;52.822;6.666;2023-04-30T09:23:25;15.30;98.60
55211;DHT22;41082;52.822;6.666;2023-04-30T09:25:51;15.40;98.40
55211;DHT22;41082;52.822;6.666;2023-04-30T09:28:17;15.50;98.30
55211;DHT22;41082;52.822;6.666;2023-04-30T09:30:43;15.70;97.90
55211;DHT22;41082;52.822;6.666;2023-04-30T09:33:09;15.80;97.60
55211;DHT22;41082;52.822;6.666;2023-04-30T09:35:36;15.90;97.50
55211;DHT22;41082;52.822;6.666;2023-04-30T09:38:03;16.10;97.70
55211;DHT22;41082;52.822;6.666;2023-04-30T09:40:40;16.20;97.70
55211;DHT22;41082;52.822;6.666;2023-04-30T09:43:06;16.30;97.40
55211;DHT22;41082;52.822;6.666;2023-04-30T09:45:45;16.40;97.10
55211;DHT22;41082;52.822;6.666;2023-04-30T09:48:14;16.40;97.00
55211;DHT22;41082;52.822;6.666;2023-04-30T09:50:41;16.40;96.20
55211;DHT22;41082;52.822;6.666;2023-04-30T09:53:08;16.50;95.80
55211;DHT22;41082;52.822;6.666;2023-04-30T09:55:34;16.40;94.20
55211;DHT22;41082;52.822;6.666;2023-04-30T09:58:04;16.50;95.00
55211;DHT22;41082;52.822;6.666;2023-04-30T10:00:32;16.60;95.50
55211;DHT22;41082;52.822;6.666;2023-04-30T10:03:00;16.80;96.10
55211;DHT22;41082;52.822;6.666;2023-04-30T10:05:26;16.90;96.20
55211;DHT22;41082;52.822;6.666;2023-04-30T10:07:53;17.00;95.30
55211;DHT22;41082;52.822;6.666;2023-04-30T10:10:19;17.20;95.20
55211;DHT22;41082;52.822;6.666;2023-04-30T10:12:49;17.20;95.20
55211;DHT22;41082;52.822;6.666;2023-04-30T10:15:22;17.30;94.70
55211;DHT22;41082;52.822;6.666;2023-04-30T10:17:56;17.20;93.90
55211;DHT22;41082;52.822;6.666;2023-04-30T10:20:22;17.20;93.40
55211;DHT22;41082;52.822;6.666;2023-04-30T10:22:49;17.30;92.90
55211;DHT22;41082;52.822;6.666;2023-04-30T10:25:15;17.40;91.90
55211;DHT22;41082;52.822;6.666;2023-04-30T10:27:41;17.50;91.10
55211;DHT22;41082;52.822;6.666;2023-04-30T10:30:09;17.60;91.40
55211;DHT22;41082;52.822;6.666;2023-04-30T10:32:47;17.70;90.80
55211;DHT22;41082;52.822;6.666;2023-04-30T10:35:20;17.60;88.90
55211;DHT22;41082;52.822;6.666;2023-04-30T10:37:54;17.70;88.30
55211;DHT22;41082;52.822;6.666;2023-04-30T10:40:21;17.80;87.30
55211;DHT22;41082;52.822;6.666;2023-04-30T10:42:48;18.00;87.20
55211;DHT22;41082;52.822;6.666;2023-04-30T10:45:17;18.10;86.40
55211;DHT22;41082;52.822;6.666;2023-04-30T10:47:44;18.20;85.10
55211;DHT22;41082;52.822;6.666;2023-04-30T10:50:10;18.30;85.70
55211;DHT22;41082;52.822;6.666;2023-04-30T10:52:37;18.40;84.50
55211;DHT22;41082;52.822;6.666;2023-04-30T10:55:04;18.40;84.80
55211;DHT22;41082;52.822;6.666;2023-04-30T10:57:30;18.50;84.60
55211;DHT22;41082;52.822;6.666;2023-04-30T11:02:45;18.40;83.30
55211;DHT22;41082;52.822;6.666;2023-04-30T11:05:16;18.50;83.10
55211;DHT22;41082;52.822;6.666;2023-04-30T11:10:13;18.60;81.10
55211;DHT22;41082;52.822;6.666;2023-04-30T11:12:52;18.60;81.50
55211;DHT22;41082;52.822;6.666;2023-04-30T11:15:25;18.70;81.10
55211;DHT22;41082;52.822;6.666;2023-04-30T11:17:55;18.60;80.90
55211;DHT22;41082;52.822;6.666;2023-04-30T11:20:23;18.70;82.30
55211;DHT22;41082;52.822;6.666;2023-04-30T11:23:10;18.70;82.50
55211;DHT22;41082;52.822;6.666;2023-04-30T11:25:45;18.70;81.50
55211;DHT22;41082;52.822;6.666;2023-04-30T11:28:18;18.80;80.80
55211;DHT22;41082;52.822;6.666;2023-04-30T11:30:50;18.80;79.80
55211;DHT22;41082;52.822;6.666;2023-04-30T11:33:17;18.80;79.60
55211;DHT22;41082;52.822;6.666;2023-04-30T11:35:43;18.70;79.60
55211;DHT22;41082;52.822;6.666;2023-04-30T11:38:11;18.80;79.60
55211;DHT22;41082;52.822;6.666;2023-04-30T11:40:37;18.90;79.70
55211;DHT22;41082;52.822;6.666;2023-04-30T11:43:03;18.80;79.50
55211;DHT22;41082;52.822;6.666;2023-04-30T11:45:29;18.90;79.70
55211;DHT22;41082;52.822;6.666;2023-04-30T11:47:56;18.90;76.80
55211;DHT22;41082;52.822;6.666;2023-04-30T11:50:23;18.80;77.80
55211;DHT22;41082;52.822;6.666;2023-04-30T11:52:57;18.90;78.80
55211;DHT22;41082;52.822;6.666;2023-04-30T11:55:24;18.80;78.50
55211;DHT22;41082;52.822;6.666;2023-04-30T11:57:52;18.80;78.00
55211;DHT22;41082;52.822;6.666;2023-04-30T12:00:26;18.70;79.10
55211;DHT22;41082;52.822;6.666;2023-04-30T12:02:52;18.80;77.60
55211;DHT22;41082;52.822;6.666;2023-04-30T12:05:24;18.80;76.60
55211;DHT22;41082;52.822;6.666;2023-04-30T12:07:54;18.70;76.90
55211;DHT22;41082;52.822;6.666;2023-04-30T12:10:21;18.70;78.00
55211;DHT22;41082;52.822;6.666;2023-04-30T12:12:48;18.70;78.70
55211;DHT22;41082;52.822;6.666;2023-04-30T12:15:18;18.70;78.90
55211;DHT22;41082;52.822;6.666;2023-04-30T12:17:45;18.70;79.50
55211;DHT22;41082;52.822;6.666;2023-04-30T12:20:12;18.60;79.70
55211;DHT22;41082;52.822;6.666;2023-04-30T12:22:42;18.60;79.10
55211;DHT22;41082;52.822;6.666;2023-04-30T12:25:15;18.60;79.30
55211;DHT22;41082;52.822;6.666;2023-04-30T12:27:45;18.30;76.00
55211;DHT22;41082;52.822;6.666;2023-04-30T12:30:11;18.20;77.00
55211;DHT22;41082;52.822;6.666;2023-04-30T12:32:43;18.20;77.80
55211;DHT22;41082;52.822;6.666;2023-04-30T12:35:13;18.20;78.10
55211;DHT22;41082;52.822;6.666;2023-04-30T12:37:52;18.20;77.70
55211;DHT22;41082;52.822;6.666;2023-04-30T12:40:19;18.20;79.50
55211;DHT22;41082;52.822;6.666;2023-04-30T12:42:45;18.20;78.80
55211;DHT22;41082;52.822;6.666;2023-04-30T12:45:52;18.20;79.30
55211;DHT22;41082;52.822;6.666;2023-04-30T12:48:23;18.10;80.10
55211;DHT22;41082;52.822;6.666;2023-04-30T12:50:53;18.00;79.50
55211;DHT22;41082;52.822;6.666;2023-04-30T12:53:19;18.00;80.00
55211;DHT22;41082;52.822;6.666;2023-04-30T12:58:37;18.10;78.90
55211;DHT22;41082;52.822;6.666;2023-04-30T13:01:03;18.10;79.20
55211;DHT22;41082;52.822;6.666;2023-04-30T13:03:28;18.20;80.70
55211;DHT22;41082;52.822;6.666;2023-04-30T13:05:54;18.20;82.10
55211;DHT22;41082;52.822;6.666;2023-04-30T13:08:20;18.10;78.70
55211;DHT22;41082;52.822;6.666;2023-04-30T13:10:46;18.10;80.00
55211;DHT22;41082;52.822;6.666;2023-04-30T13:13:16;18.10;81.60
55211;DHT22;41082;52.822;6.666;2023-04-30T13:15:42;18.20;82.70
55211;DHT22;41082;52.822;6.666;2023-04-30T13:18:08;18.20;81.90
55211;DHT22;41082;52.822;6.666;2023-04-30T13:20:35;18.10;80.50
55211;DHT22;41082;52.822;6.666;2023-04-30T13:23:00;18.20;80.40
55211;DHT22;41082;52.822;6.666;2023-04-30T13:25:26;18.20;80.60
55211;DHT22;41082;52.822;6.666;2023-04-30T13:27:52;18.20;81.20
55211;DHT22;41082;52.822;6.666;2023-04-30T13:30:17;18.30;80.60
55211;DHT22;41082;52.822;6.666;2023-04-30T13:32:43;18.30;80.00
55211;DHT22;41082;52.822;6.666;2023-04-30T13:35:10;18.30;80.10
55211;DHT22;41082;52.822;6.666;2023-04-30T13:37:36;18.30;80.10
55211;DHT22;41082;52.822;6.666;2023-04-30T13:40:06;18.30;79.70
55211;DHT22;41082;52.822;6.666;2023-04-30T13:42:32;18.30;78.90
55211;DHT22;41082;52.822;6.666;2023-04-30T13:44:58;18.30;78.50
55211;DHT22;41082;52.822;6.666;2023-04-30T13:47:23;18.40;79.60
55211;DHT22;41082;52.822;6.666;2023-04-30T13:49:49;18.40;79.30
55211;DHT22;41082;52.822;6.666;2023-04-30T13:52:15;18.40;77.80
55211;DHT22;41082;52.822;6.666;2023-04-30T13:54:40;18.40;77.00
55211;DHT22;41082;52.822;6.666;2023-04-30T13:57:06;18.50;77.90
55211;DHT22;41082;52.822;6.666;2023-04-30T13:59:32;18.40;76.80
55211;DHT22;41082;52.822;6.666;2023-04-30T14:01:58;18.40;76.00
55211;DHT22;41082;52.822;6.666;2023-04-30T14:04:23;18.30;76.60
55211;DHT22;41082;52.822;6.666;2023-04-30T14:06:50;18.30;77.30
55211;DHT22;41082;52.822;6.666;2023-04-30T14:09:15;18.40;76.90
55211;DHT22;41082;52.822;6.666;2023-04-30T14:11:42;18.30;76.40
55211;DHT22;41082;52.822;6.666;2023-04-30T14:14:08;18.30;76.70
55211;DHT22;41082;52.822;6.666;2023-04-30T14:16:33;18.40;77.20
55211;DHT22;41082;52.822;6.666;2023-04-30T14:18:59;18.40;76.30
55211;DHT22;41082;52.822;6.666;2023-04-30T14:21:25;18.40;76.10
55211;DHT22;41082;52.822;6.666;2023-04-30T14:23:51;18.40;76.60
55211;DHT22;41082;52.822;6.666;2023-04-30T14:26:17;18.40;75.80
55211;DHT22;41082;52.822;6.666;2023-04-30T14:28:43;18.40;75.50
55211;DHT22;41082;52.822;6.666;2023-04-30T14:31:08;18.30;74.80
55211;DHT22;41082;52.822;6.666;2023-04-30T14:33:35;18.20;73.90
55211;DHT22;41082;52.822;6.666;2023-04-30T14:36:00;18.10;74.40
55211;DHT22;41082;52.822;6.666;2023-04-30T14:38:26;18.10;75.70
55211;DHT22;41082;52.822;6.666;2023-04-30T14:40:52;18.10;76.50
55211;DHT22;41082;52.822;6.666;2023-04-30T14:43:18;18.00;76.90
55211;DHT22;41082;52.822;6.666;2023-04-30T14:45:44;18.10;75.10
55211;DHT22;41082;52.822;6.666;2023-04-30T14:48:11;18.20;74.50
55211;DHT22;41082;52.822;6.666;2023-04-30T14:50:36;18.30;73.70
55211;DHT22;41082;52.822;6.666;2023-04-30T14:53:03;18.30;74.30
55211;DHT22;41082;52.822;6.666;2023-04-30T14:55:30;18.40;74.30
55211;DHT22;41082;52.822;6.666;2023-04-30T14:57:55;18.50;73.10
55211;DHT22;41082;52.822;6.666;2023-04-30T15:00:21;18.70;73.10
55211;DHT22;41082;52.822;6.666;2023-04-30T15:02:47;18.80;73.70
55211;DHT22;41082;52.822;6.666;2023-04-30T15:05:12;19.00;74.00
55211;DHT22;41082;52.822;6.666;2023-04-30T15:07:38;19.10;72.80
55211;DHT22;41082;52.822;6.666;2023-04-30T15:10:04;19.30;72.20
55211;DHT22;41082;52.822;6.666;2023-04-30T15:12:31;19.20;71.70
55211;DHT22;41082;52.822;6.666;2023-04-30T15:14:57;19.30;72.30
55211;DHT22;41082;52.822;6.666;2023-04-30T15:17:23;19.30;71.90
55211;DHT22;41082;52.822;6.666;2023-04-30T15:19:48;19.40;71.50
55211;DHT22;41082;52.822;6.666;2023-04-30T15:22:14;19.60;71.80
55211;DHT22;41082;52.822;6.666;2023-04-30T15:24:40;19.60;71.20
55211;DHT22;41082;52.822;6.666;2023-04-30T15:27:06;19.60;70.80
55211;DHT22;41082;52.822;6.666;2023-04-30T15:29:32;19.60;69.90
55211;DHT22;41082;52.822;6.666;2023-04-30T15:31:58;19.70;69.00
55211;DHT22;41082;52.822;6.666;2023-04-30T15:34:24;19.80;68.80
55211;DHT22;41082;52.822;6.666;2023-04-30T15:36:50;19.70;69.20
55211;DHT22;41082;52.822;6.666;2023-04-30T15:39:16;19.70;69.60
55211;DHT22;41082;52.822;6.666;2023-04-30T15:41:43;19.80;69.50
55211;DHT22;41082;52.822;6.666;2023-04-30T15:44:11;19.80;69.60
55211;DHT22;41082;52.822;6.666;2023-04-30T15:46:37;19.80;68.80
55211;DHT22;41082;52.822;6.666;2023-04-30T15:49:02;19.70;67.70
55211;DHT22;41082;52.822;6.666;2023-04-30T15:51:28;19.70;67.00
55211;DHT22;41082;52.822;6.666;2023-04-30T15:53:54;19.70;67.10
55211;DHT22;41082;52.822;6.666;2023-04-30T15:56:19;19.70;67.40
55211;DHT22;41082;52.822;6.666;2023-04-30T15:58:53;19.70;66.40
55211;DHT22;41082;52.822;6.666;2023-04-30T16:01:18;19.70;65.30
55211;DHT22;41082;52.822;6.666;2023-04-30T16:03:44;19.70;65.00